<?xml version="1.0" encoding="UTF-8" standalone="no" ?>
<gpx xmlns="http://www.topografix.com/GPX/1/1" xmlns:xsi="http://www.w3.org/2001/XMLSchema-instance" xsi:schemaLocation="http://www.topografix.com/GPX/1/1 http://www.topografix.com/GPX/1/1/gpx.xsd" version="1.1" creator="VisuGPX - https://www.visugpx.com">
  <metadata>
    <name>Font Blanche</name>
    <desc><![CDATA[Sans difficulté.]]></desc>
  </metadata>
  <trk>
    <name><![CDATA[Font Blanche_1]]></name>
    <trkseg>
      <trkpt lat="43.23508" lon="5.6701">
        <ele>417.9</ele>
        <time>2016-05-25T06:21:41Z</time>
      </trkpt>
      <trkpt lat="43.23508" lon="5.67011">
        <ele>419</ele>
        <time>2016-05-25T06:21:42Z</time>
      </trkpt>
      <trkpt lat="43.23514" lon="5.67033">
        <ele>396.8</ele>
        <time>2016-05-25T06:25:13Z</time>
      </trkpt>
      <trkpt lat="43.23544" lon="5.67046">
        <ele>403.6</ele>
        <time>2016-05-25T06:26:03Z</time>
      </trkpt>
      <trkpt lat="43.23559" lon="5.67034">
        <ele>404</ele>
        <time>2016-05-25T06:26:28Z</time>
      </trkpt>
      <trkpt lat="43.2356" lon="5.67034">
        <ele>403.5</ele>
        <time>2016-05-25T06:26:29Z</time>
      </trkpt>
      <trkpt lat="43.23594" lon="5.67041">
        <ele>404.2</ele>
        <time>2016-05-25T06:27:05Z</time>
      </trkpt>
      <trkpt lat="43.23611" lon="5.6704">
        <ele>400.7</ele>
        <time>2016-05-25T06:27:21Z</time>
      </trkpt>
      <trkpt lat="43.23628" lon="5.67038">
        <ele>399.2</ele>
        <time>2016-05-25T06:27:39Z</time>
      </trkpt>
      <trkpt lat="43.2363" lon="5.67038">
        <ele>399.8</ele>
        <time>2016-05-25T06:27:40Z</time>
      </trkpt>
      <trkpt lat="43.23661" lon="5.67027">
        <ele>399.7</ele>
        <time>2016-05-25T06:28:11Z</time>
      </trkpt>
      <trkpt lat="43.23678" lon="5.67023">
        <ele>399.2</ele>
        <time>2016-05-25T06:28:30Z</time>
      </trkpt>
      <trkpt lat="43.23696" lon="5.67023">
        <ele>401.8</ele>
        <time>2016-05-25T06:28:48Z</time>
      </trkpt>
      <trkpt lat="43.23697" lon="5.67023">
        <ele>401.8</ele>
        <time>2016-05-25T06:28:49Z</time>
      </trkpt>
      <trkpt lat="43.23732" lon="5.67026">
        <ele>405.7</ele>
        <time>2016-05-25T06:29:20Z</time>
      </trkpt>
      <trkpt lat="43.23748" lon="5.6703">
        <ele>405.7</ele>
        <time>2016-05-25T06:29:36Z</time>
      </trkpt>
      <trkpt lat="43.23765" lon="5.67037">
        <ele>407</ele>
        <time>2016-05-25T06:29:51Z</time>
      </trkpt>
      <trkpt lat="43.23766" lon="5.67037">
        <ele>407.1</ele>
        <time>2016-05-25T06:29:52Z</time>
      </trkpt>
      <trkpt lat="43.238" lon="5.67047">
        <ele>410.6</ele>
        <time>2016-05-25T06:30:22Z</time>
      </trkpt>
      <trkpt lat="43.23817" lon="5.67042">
        <ele>410.1</ele>
        <time>2016-05-25T06:30:40Z</time>
      </trkpt>
      <trkpt lat="43.2383" lon="5.67026">
        <ele>409.6</ele>
        <time>2016-05-25T06:30:57Z</time>
      </trkpt>
      <trkpt lat="43.23831" lon="5.67025">
        <ele>410</ele>
        <time>2016-05-25T06:30:58Z</time>
      </trkpt>
      <trkpt lat="43.2385" lon="5.66989">
        <ele>410.8</ele>
        <time>2016-05-25T06:31:26Z</time>
      </trkpt>
      <trkpt lat="43.23858" lon="5.66968">
        <ele>411.3</ele>
        <time>2016-05-25T06:31:41Z</time>
      </trkpt>
      <trkpt lat="43.23865" lon="5.66946">
        <ele>411.2</ele>
        <time>2016-05-25T06:31:58Z</time>
      </trkpt>
      <trkpt lat="43.23866" lon="5.66945">
        <ele>411.2</ele>
        <time>2016-05-25T06:31:59Z</time>
      </trkpt>
      <trkpt lat="43.23877" lon="5.66901">
        <ele>411.1</ele>
        <time>2016-05-25T06:32:30Z</time>
      </trkpt>
      <trkpt lat="43.2388" lon="5.66878">
        <ele>412.7</ele>
        <time>2016-05-25T06:32:44Z</time>
      </trkpt>
      <trkpt lat="43.23884" lon="5.66855">
        <ele>413.2</ele>
        <time>2016-05-25T06:32:58Z</time>
      </trkpt>
      <trkpt lat="43.23888" lon="5.66832">
        <ele>413.2</ele>
        <time>2016-05-25T06:33:13Z</time>
      </trkpt>
      <trkpt lat="43.23888" lon="5.66831">
        <ele>413.2</ele>
        <time>2016-05-25T06:33:14Z</time>
      </trkpt>
      <trkpt lat="43.23917" lon="5.66809">
        <ele>417.8</ele>
        <time>2016-05-25T06:33:51Z</time>
      </trkpt>
      <trkpt lat="43.23933" lon="5.668">
        <ele>418.7</ele>
        <time>2016-05-25T06:34:08Z</time>
      </trkpt>
      <trkpt lat="43.23949" lon="5.6679">
        <ele>420.2</ele>
        <time>2016-05-25T06:34:24Z</time>
      </trkpt>
      <trkpt lat="43.2395" lon="5.6679">
        <ele>420.2</ele>
        <time>2016-05-25T06:34:25Z</time>
      </trkpt>
      <trkpt lat="43.23971" lon="5.66753">
        <ele>417.3</ele>
        <time>2016-05-25T06:35:25Z</time>
      </trkpt>
      <trkpt lat="43.23972" lon="5.66752">
        <ele>417.6</ele>
        <time>2016-05-25T06:35:26Z</time>
      </trkpt>
      <trkpt lat="43.24" lon="5.6673">
        <ele>417.8</ele>
        <time>2016-05-25T06:35:55Z</time>
      </trkpt>
      <trkpt lat="43.24011" lon="5.66712">
        <ele>419.2</ele>
        <time>2016-05-25T06:36:10Z</time>
      </trkpt>
      <trkpt lat="43.24028" lon="5.66702">
        <ele>421</ele>
        <time>2016-05-25T06:36:27Z</time>
      </trkpt>
      <trkpt lat="43.24029" lon="5.66702">
        <ele>421.3</ele>
        <time>2016-05-25T06:36:28Z</time>
      </trkpt>
      <trkpt lat="43.24051" lon="5.6667">
        <ele>418.5</ele>
        <time>2016-05-25T06:37:04Z</time>
      </trkpt>
      <trkpt lat="43.24053" lon="5.66646">
        <ele>420.3</ele>
        <time>2016-05-25T06:37:20Z</time>
      </trkpt>
      <trkpt lat="43.2406" lon="5.66624">
        <ele>420.2</ele>
        <time>2016-05-25T06:37:37Z</time>
      </trkpt>
      <trkpt lat="43.24061" lon="5.66623">
        <ele>420.1</ele>
        <time>2016-05-25T06:37:38Z</time>
      </trkpt>
      <trkpt lat="43.24091" lon="5.666">
        <ele>418.2</ele>
        <time>2016-05-25T06:38:13Z</time>
      </trkpt>
      <trkpt lat="43.24107" lon="5.66591">
        <ele>419.1</ele>
        <time>2016-05-25T06:38:28Z</time>
      </trkpt>
      <trkpt lat="43.24122" lon="5.66581">
        <ele>420.3</ele>
        <time>2016-05-25T06:38:45Z</time>
      </trkpt>
      <trkpt lat="43.24124" lon="5.66581">
        <ele>420.8</ele>
        <time>2016-05-25T06:38:46Z</time>
      </trkpt>
      <trkpt lat="43.24155" lon="5.66566">
        <ele>419.2</ele>
        <time>2016-05-25T06:39:22Z</time>
      </trkpt>
      <trkpt lat="43.24172" lon="5.66561">
        <ele>421</ele>
        <time>2016-05-25T06:39:39Z</time>
      </trkpt>
      <trkpt lat="43.2419" lon="5.66556">
        <ele>421.7</ele>
        <time>2016-05-25T06:39:56Z</time>
      </trkpt>
      <trkpt lat="43.2419" lon="5.66556">
        <ele>421.7</ele>
        <time>2016-05-25T06:39:57Z</time>
      </trkpt>
      <trkpt lat="43.24225" lon="5.66552">
        <ele>423.7</ele>
        <time>2016-05-25T06:40:31Z</time>
      </trkpt>
      <trkpt lat="43.24241" lon="5.66544">
        <ele>423.3</ele>
        <time>2016-05-25T06:40:49Z</time>
      </trkpt>
      <trkpt lat="43.24258" lon="5.66537">
        <ele>424.7</ele>
        <time>2016-05-25T06:41:06Z</time>
      </trkpt>
      <trkpt lat="43.24259" lon="5.66537">
        <ele>424.7</ele>
        <time>2016-05-25T06:41:07Z</time>
      </trkpt>
      <trkpt lat="43.2429" lon="5.66522">
        <ele>423.8</ele>
        <time>2016-05-25T06:41:48Z</time>
      </trkpt>
      <trkpt lat="43.24306" lon="5.6651">
        <ele>426</ele>
        <time>2016-05-25T06:42:03Z</time>
      </trkpt>
      <trkpt lat="43.24318" lon="5.66495">
        <ele>426.7</ele>
        <time>2016-05-25T06:42:23Z</time>
      </trkpt>
      <trkpt lat="43.24321" lon="5.66495">
        <ele>427.2</ele>
        <time>2016-05-25T06:42:24Z</time>
      </trkpt>
      <trkpt lat="43.24352" lon="5.66485">
        <ele>429.6</ele>
        <time>2016-05-25T06:42:59Z</time>
      </trkpt>
      <trkpt lat="43.24368" lon="5.66494">
        <ele>428.8</ele>
        <time>2016-05-25T06:43:21Z</time>
      </trkpt>
      <trkpt lat="43.24385" lon="5.66488">
        <ele>422.2</ele>
        <time>2016-05-25T06:47:43Z</time>
      </trkpt>
      <trkpt lat="43.24386" lon="5.66489">
        <ele>422.2</ele>
        <time>2016-05-25T06:47:44Z</time>
      </trkpt>
      <trkpt lat="43.24418" lon="5.66502">
        <ele>415.2</ele>
        <time>2016-05-25T06:48:40Z</time>
      </trkpt>
      <trkpt lat="43.24435" lon="5.66509">
        <ele>411.3</ele>
        <time>2016-05-25T06:49:04Z</time>
      </trkpt>
      <trkpt lat="43.24436" lon="5.66509">
        <ele>411.2</ele>
        <time>2016-05-25T06:49:05Z</time>
      </trkpt>
      <trkpt lat="43.24469" lon="5.66523">
        <ele>404.7</ele>
        <time>2016-05-25T06:49:55Z</time>
      </trkpt>
      <trkpt lat="43.24486" lon="5.6653">
        <ele>399.6</ele>
        <time>2016-05-25T06:50:22Z</time>
      </trkpt>
      <trkpt lat="43.24487" lon="5.6653">
        <ele>399.5</ele>
        <time>2016-05-25T06:50:23Z</time>
      </trkpt>
      <trkpt lat="43.24501" lon="5.66514">
        <ele>392.7</ele>
        <time>2016-05-25T06:51:20Z</time>
      </trkpt>
      <trkpt lat="43.24492" lon="5.66493">
        <ele>390.5</ele>
        <time>2016-05-25T06:51:42Z</time>
      </trkpt>
      <trkpt lat="43.24492" lon="5.66492">
        <ele>390.2</ele>
        <time>2016-05-25T06:51:43Z</time>
      </trkpt>
      <trkpt lat="43.24471" lon="5.66455">
        <ele>389.8</ele>
        <time>2016-05-25T06:52:23Z</time>
      </trkpt>
      <trkpt lat="43.24459" lon="5.66437">
        <ele>389.2</ele>
        <time>2016-05-25T06:52:42Z</time>
      </trkpt>
      <trkpt lat="43.24446" lon="5.66421">
        <ele>389.1</ele>
        <time>2016-05-25T06:53:05Z</time>
      </trkpt>
      <trkpt lat="43.24445" lon="5.6642">
        <ele>388.7</ele>
        <time>2016-05-25T06:53:06Z</time>
      </trkpt>
      <trkpt lat="43.24425" lon="5.66382">
        <ele>384.3</ele>
        <time>2016-05-25T06:53:50Z</time>
      </trkpt>
      <trkpt lat="43.24416" lon="5.66362">
        <ele>381.7</ele>
        <time>2016-05-25T06:54:13Z</time>
      </trkpt>
      <trkpt lat="43.24416" lon="5.66361">
        <ele>381.7</ele>
        <time>2016-05-25T06:54:14Z</time>
      </trkpt>
      <trkpt lat="43.24397" lon="5.6632">
        <ele>376.1</ele>
        <time>2016-05-25T06:54:54Z</time>
      </trkpt>
      <trkpt lat="43.24384" lon="5.66304">
        <ele>371.8</ele>
        <time>2016-05-25T06:55:17Z</time>
      </trkpt>
      <trkpt lat="43.24384" lon="5.66303">
        <ele>371.8</ele>
        <time>2016-05-25T06:55:18Z</time>
      </trkpt>
      <trkpt lat="43.24357" lon="5.66273">
        <ele>367</ele>
        <time>2016-05-25T06:56:02Z</time>
      </trkpt>
      <trkpt lat="43.24343" lon="5.66259">
        <ele>365</ele>
        <time>2016-05-25T06:56:24Z</time>
      </trkpt>
      <trkpt lat="43.24342" lon="5.66258">
        <ele>364.7</ele>
        <time>2016-05-25T06:56:25Z</time>
      </trkpt>
      <trkpt lat="43.24317" lon="5.66226">
        <ele>359.5</ele>
        <time>2016-05-25T06:57:12Z</time>
      </trkpt>
      <trkpt lat="43.24306" lon="5.66207">
        <ele>358.2</ele>
        <time>2016-05-25T06:57:35Z</time>
      </trkpt>
      <trkpt lat="43.24305" lon="5.66206">
        <ele>358</ele>
        <time>2016-05-25T06:57:36Z</time>
      </trkpt>
      <trkpt lat="43.24282" lon="5.66173">
        <ele>350.7</ele>
        <time>2016-05-25T06:58:14Z</time>
      </trkpt>
      <trkpt lat="43.24273" lon="5.66152">
        <ele>348.7</ele>
        <time>2016-05-25T06:58:33Z</time>
      </trkpt>
      <trkpt lat="43.24289" lon="5.6614">
        <ele>348.2</ele>
        <time>2016-05-25T06:59:27Z</time>
      </trkpt>
      <trkpt lat="43.24289" lon="5.6614">
        <ele>347.8</ele>
        <time>2016-05-25T06:59:28Z</time>
      </trkpt>
      <trkpt lat="43.24317" lon="5.66166">
        <ele>347.3</ele>
        <time>2016-05-25T07:00:12Z</time>
      </trkpt>
      <trkpt lat="43.24332" lon="5.66179">
        <ele>349.2</ele>
        <time>2016-05-25T07:00:32Z</time>
      </trkpt>
      <trkpt lat="43.24332" lon="5.6618">
        <ele>349.3</ele>
        <time>2016-05-25T07:00:33Z</time>
      </trkpt>
      <trkpt lat="43.24366" lon="5.66184">
        <ele>346.7</ele>
        <time>2016-05-25T07:01:21Z</time>
      </trkpt>
      <trkpt lat="43.24384" lon="5.6618">
        <ele>342.3</ele>
        <time>2016-05-25T07:01:46Z</time>
      </trkpt>
      <trkpt lat="43.24385" lon="5.6618">
        <ele>342.7</ele>
        <time>2016-05-25T07:01:47Z</time>
      </trkpt>
      <trkpt lat="43.24418" lon="5.66167">
        <ele>340.7</ele>
        <time>2016-05-25T07:02:41Z</time>
      </trkpt>
      <trkpt lat="43.24435" lon="5.66163">
        <ele>338.8</ele>
        <time>2016-05-25T07:03:01Z</time>
      </trkpt>
      <trkpt lat="43.24436" lon="5.66163">
        <ele>338.7</ele>
        <time>2016-05-25T07:03:02Z</time>
      </trkpt>
      <trkpt lat="43.24467" lon="5.66186">
        <ele>345.1</ele>
        <time>2016-05-25T07:04:02Z</time>
      </trkpt>
      <trkpt lat="43.24467" lon="5.66187">
        <ele>345.2</ele>
        <time>2016-05-25T07:04:03Z</time>
      </trkpt>
      <trkpt lat="43.2449" lon="5.66221">
        <ele>336.2</ele>
        <time>2016-05-25T07:04:52Z</time>
      </trkpt>
      <trkpt lat="43.24499" lon="5.66242">
        <ele>338.2</ele>
        <time>2016-05-25T07:05:09Z</time>
      </trkpt>
      <trkpt lat="43.245" lon="5.66243">
        <ele>339</ele>
        <time>2016-05-25T07:05:10Z</time>
      </trkpt>
      <trkpt lat="43.24526" lon="5.66269">
        <ele>345.2</ele>
        <time>2016-05-25T07:05:46Z</time>
      </trkpt>
      <trkpt lat="43.24543" lon="5.66271">
        <ele>341.2</ele>
        <time>2016-05-25T07:06:05Z</time>
      </trkpt>
      <trkpt lat="43.2456" lon="5.66271">
        <ele>343.8</ele>
        <time>2016-05-25T07:06:19Z</time>
      </trkpt>
      <trkpt lat="43.24561" lon="5.66271">
        <ele>343.8</ele>
        <time>2016-05-25T07:06:20Z</time>
      </trkpt>
      <trkpt lat="43.24593" lon="5.66284">
        <ele>342.2</ele>
        <time>2016-05-25T07:09:30Z</time>
      </trkpt>
      <trkpt lat="43.24594" lon="5.66284">
        <ele>343.7</ele>
        <time>2016-05-25T07:09:31Z</time>
      </trkpt>
      <trkpt lat="43.24606" lon="5.66301">
        <ele>339.5</ele>
        <time>2016-05-25T07:13:12Z</time>
      </trkpt>
      <trkpt lat="43.24618" lon="5.66345">
        <ele>337.2</ele>
        <time>2016-05-25T07:13:53Z</time>
      </trkpt>
      <trkpt lat="43.24624" lon="5.66368">
        <ele>341.3</ele>
        <time>2016-05-25T07:14:13Z</time>
      </trkpt>
      <trkpt lat="43.24624" lon="5.66369">
        <ele>341.5</ele>
        <time>2016-05-25T07:14:14Z</time>
      </trkpt>
      <trkpt lat="43.24636" lon="5.66414">
        <ele>344.7</ele>
        <time>2016-05-25T07:14:54Z</time>
      </trkpt>
      <trkpt lat="43.24644" lon="5.66435">
        <ele>349.2</ele>
        <time>2016-05-25T07:15:12Z</time>
      </trkpt>
      <trkpt lat="43.24653" lon="5.66457">
        <ele>350.6</ele>
        <time>2016-05-25T07:15:32Z</time>
      </trkpt>
      <trkpt lat="43.24653" lon="5.66458">
        <ele>350.7</ele>
        <time>2016-05-25T07:15:33Z</time>
      </trkpt>
      <trkpt lat="43.24669" lon="5.665">
        <ele>354.3</ele>
        <time>2016-05-25T07:16:09Z</time>
      </trkpt>
      <trkpt lat="43.24672" lon="5.66524">
        <ele>354.6</ele>
        <time>2016-05-25T07:16:26Z</time>
      </trkpt>
      <trkpt lat="43.24674" lon="5.66547">
        <ele>354.3</ele>
        <time>2016-05-25T07:16:43Z</time>
      </trkpt>
      <trkpt lat="43.24674" lon="5.66549">
        <ele>354.7</ele>
        <time>2016-05-25T07:16:44Z</time>
      </trkpt>
      <trkpt lat="43.24675" lon="5.66594">
        <ele>356.8</ele>
        <time>2016-05-25T07:17:14Z</time>
      </trkpt>
      <trkpt lat="43.24672" lon="5.66618">
        <ele>352.8</ele>
        <time>2016-05-25T07:17:29Z</time>
      </trkpt>
      <trkpt lat="43.24672" lon="5.66641">
        <ele>354.7</ele>
        <time>2016-05-25T07:17:43Z</time>
      </trkpt>
      <trkpt lat="43.2467" lon="5.66665">
        <ele>358.5</ele>
        <time>2016-05-25T07:18:04Z</time>
      </trkpt>
      <trkpt lat="43.2467" lon="5.66666">
        <ele>358</ele>
        <time>2016-05-25T07:18:05Z</time>
      </trkpt>
      <trkpt lat="43.24663" lon="5.66711">
        <ele>348.1</ele>
        <time>2016-05-25T07:18:57Z</time>
      </trkpt>
      <trkpt lat="43.24656" lon="5.66732">
        <ele>347.3</ele>
        <time>2016-05-25T07:19:15Z</time>
      </trkpt>
      <trkpt lat="43.24655" lon="5.66733">
        <ele>347.2</ele>
        <time>2016-05-25T07:19:16Z</time>
      </trkpt>
      <trkpt lat="43.2464" lon="5.66776">
        <ele>338.1</ele>
        <time>2016-05-25T07:19:52Z</time>
      </trkpt>
      <trkpt lat="43.24638" lon="5.66799">
        <ele>338.7</ele>
        <time>2016-05-25T07:20:12Z</time>
      </trkpt>
      <trkpt lat="43.24643" lon="5.66823">
        <ele>341.5</ele>
        <time>2016-05-25T07:20:32Z</time>
      </trkpt>
      <trkpt lat="43.24643" lon="5.66824">
        <ele>341.7</ele>
        <time>2016-05-25T07:20:33Z</time>
      </trkpt>
      <trkpt lat="43.24678" lon="5.66828">
        <ele>343</ele>
        <time>2016-05-25T07:21:19Z</time>
      </trkpt>
      <trkpt lat="43.24695" lon="5.66833">
        <ele>349.7</ele>
        <time>2016-05-25T07:21:41Z</time>
      </trkpt>
      <trkpt lat="43.24696" lon="5.66833">
        <ele>350</ele>
        <time>2016-05-25T07:21:42Z</time>
      </trkpt>
      <trkpt lat="43.24729" lon="5.6684">
        <ele>354.3</ele>
        <time>2016-05-25T07:22:32Z</time>
      </trkpt>
      <trkpt lat="43.24746" lon="5.66842">
        <ele>355.2</ele>
        <time>2016-05-25T07:22:52Z</time>
      </trkpt>
      <trkpt lat="43.24747" lon="5.66841">
        <ele>355.2</ele>
        <time>2016-05-25T07:22:53Z</time>
      </trkpt>
      <trkpt lat="43.24779" lon="5.66852">
        <ele>360.7</ele>
        <time>2016-05-25T07:23:26Z</time>
      </trkpt>
      <trkpt lat="43.24794" lon="5.66864">
        <ele>358.8</ele>
        <time>2016-05-25T07:23:46Z</time>
      </trkpt>
      <trkpt lat="43.24809" lon="5.66873">
        <ele>359.7</ele>
        <time>2016-05-25T07:24:01Z</time>
      </trkpt>
      <trkpt lat="43.24811" lon="5.66873">
        <ele>360.3</ele>
        <time>2016-05-25T07:24:02Z</time>
      </trkpt>
      <trkpt lat="43.2484" lon="5.66897">
        <ele>362.7</ele>
        <time>2016-05-25T07:24:37Z</time>
      </trkpt>
      <trkpt lat="43.24855" lon="5.66908">
        <ele>369.2</ele>
        <time>2016-05-25T07:24:58Z</time>
      </trkpt>
      <trkpt lat="43.24872" lon="5.66918">
        <ele>366.2</ele>
        <time>2016-05-25T07:25:17Z</time>
      </trkpt>
      <trkpt lat="43.24873" lon="5.66918">
        <ele>367.2</ele>
        <time>2016-05-25T07:25:18Z</time>
      </trkpt>
      <trkpt lat="43.24901" lon="5.66942">
        <ele>371.7</ele>
        <time>2016-05-25T07:25:58Z</time>
      </trkpt>
      <trkpt lat="43.24906" lon="5.66965">
        <ele>374.7</ele>
        <time>2016-05-25T07:26:18Z</time>
      </trkpt>
      <trkpt lat="43.24907" lon="5.66967">
        <ele>375.1</ele>
        <time>2016-05-25T07:26:19Z</time>
      </trkpt>
      <trkpt lat="43.2492" lon="5.6701">
        <ele>375.7</ele>
        <time>2016-05-25T07:26:54Z</time>
      </trkpt>
      <trkpt lat="43.24928" lon="5.67031">
        <ele>375.2</ele>
        <time>2016-05-25T07:27:11Z</time>
      </trkpt>
      <trkpt lat="43.24937" lon="5.67053">
        <ele>370.8</ele>
        <time>2016-05-25T07:27:28Z</time>
      </trkpt>
      <trkpt lat="43.24937" lon="5.67053">
        <ele>370.5</ele>
        <time>2016-05-25T07:27:29Z</time>
      </trkpt>
      <trkpt lat="43.24948" lon="5.67099">
        <ele>370</ele>
        <time>2016-05-25T07:28:04Z</time>
      </trkpt>
      <trkpt lat="43.24953" lon="5.67122">
        <ele>365.6</ele>
        <time>2016-05-25T07:28:24Z</time>
      </trkpt>
      <trkpt lat="43.24951" lon="5.67147">
        <ele>358.7</ele>
        <time>2016-05-25T07:28:43Z</time>
      </trkpt>
      <trkpt lat="43.24951" lon="5.67148">
        <ele>358.6</ele>
        <time>2016-05-25T07:28:44Z</time>
      </trkpt>
      <trkpt lat="43.24945" lon="5.67194">
        <ele>357.2</ele>
        <time>2016-05-25T07:29:19Z</time>
      </trkpt>
      <trkpt lat="43.24936" lon="5.67215">
        <ele>356.1</ele>
        <time>2016-05-25T07:29:42Z</time>
      </trkpt>
      <trkpt lat="43.24924" lon="5.67233">
        <ele>355</ele>
        <time>2016-05-25T07:30:01Z</time>
      </trkpt>
      <trkpt lat="43.24924" lon="5.67234">
        <ele>354.8</ele>
        <time>2016-05-25T07:30:02Z</time>
      </trkpt>
      <trkpt lat="43.24896" lon="5.67263">
        <ele>349.2</ele>
        <time>2016-05-25T07:30:36Z</time>
      </trkpt>
      <trkpt lat="43.24885" lon="5.67281">
        <ele>345</ele>
        <time>2016-05-25T07:30:58Z</time>
      </trkpt>
      <trkpt lat="43.24872" lon="5.67298">
        <ele>347.8</ele>
        <time>2016-05-25T07:31:23Z</time>
      </trkpt>
      <trkpt lat="43.24872" lon="5.67299">
        <ele>347.7</ele>
        <time>2016-05-25T07:31:24Z</time>
      </trkpt>
      <trkpt lat="43.24859" lon="5.67342">
        <ele>333.8</ele>
        <time>2016-05-25T07:32:10Z</time>
      </trkpt>
      <trkpt lat="43.2486" lon="5.67366">
        <ele>330.3</ele>
        <time>2016-05-25T07:32:32Z</time>
      </trkpt>
      <trkpt lat="43.2486" lon="5.67367">
        <ele>330.2</ele>
        <time>2016-05-25T07:32:33Z</time>
      </trkpt>
      <trkpt lat="43.24867" lon="5.67413">
        <ele>319</ele>
        <time>2016-05-25T07:33:21Z</time>
      </trkpt>
      <trkpt lat="43.24883" lon="5.67402">
        <ele>319.5</ele>
        <time>2016-05-25T07:37:25Z</time>
      </trkpt>
      <trkpt lat="43.24884" lon="5.67401">
        <ele>319.2</ele>
        <time>2016-05-25T07:37:26Z</time>
      </trkpt>
      <trkpt lat="43.24912" lon="5.67376">
        <ele>317.2</ele>
        <time>2016-05-25T07:38:06Z</time>
      </trkpt>
      <trkpt lat="43.24928" lon="5.67365">
        <ele>312.8</ele>
        <time>2016-05-25T07:38:29Z</time>
      </trkpt>
      <trkpt lat="43.24929" lon="5.67364">
        <ele>313.3</ele>
        <time>2016-05-25T07:38:30Z</time>
      </trkpt>
      <trkpt lat="43.24957" lon="5.67339">
        <ele>311.2</ele>
        <time>2016-05-25T07:39:03Z</time>
      </trkpt>
      <trkpt lat="43.24972" lon="5.67329">
        <ele>310.5</ele>
        <time>2016-05-25T07:39:18Z</time>
      </trkpt>
      <trkpt lat="43.24989" lon="5.67322">
        <ele>309</ele>
        <time>2016-05-25T07:39:33Z</time>
      </trkpt>
      <trkpt lat="43.24989" lon="5.67322">
        <ele>308.6</ele>
        <time>2016-05-25T07:39:34Z</time>
      </trkpt>
      <trkpt lat="43.25015" lon="5.67292">
        <ele>306.7</ele>
        <time>2016-05-25T07:40:05Z</time>
      </trkpt>
      <trkpt lat="43.25026" lon="5.67274">
        <ele>307.1</ele>
        <time>2016-05-25T07:40:20Z</time>
      </trkpt>
      <trkpt lat="43.25033" lon="5.67252">
        <ele>306</ele>
        <time>2016-05-25T07:40:42Z</time>
      </trkpt>
      <trkpt lat="43.25033" lon="5.6725">
        <ele>305.7</ele>
        <time>2016-05-25T07:40:43Z</time>
      </trkpt>
      <trkpt lat="43.25046" lon="5.67211">
        <ele>307.3</ele>
        <time>2016-05-25T07:41:10Z</time>
      </trkpt>
      <trkpt lat="43.25056" lon="5.67191">
        <ele>302.7</ele>
        <time>2016-05-25T07:41:29Z</time>
      </trkpt>
      <trkpt lat="43.25063" lon="5.6717">
        <ele>301.5</ele>
        <time>2016-05-25T07:41:47Z</time>
      </trkpt>
      <trkpt lat="43.25064" lon="5.67169">
        <ele>301.7</ele>
        <time>2016-05-25T07:41:48Z</time>
      </trkpt>
      <trkpt lat="43.25073" lon="5.67124">
        <ele>311.7</ele>
        <time>2016-05-25T07:42:25Z</time>
      </trkpt>
      <trkpt lat="43.25075" lon="5.671">
        <ele>308.6</ele>
        <time>2016-05-25T07:42:48Z</time>
      </trkpt>
      <trkpt lat="43.25075" lon="5.67099">
        <ele>308.7</ele>
        <time>2016-05-25T07:42:49Z</time>
      </trkpt>
      <trkpt lat="43.25045" lon="5.67074">
        <ele>300.8</ele>
        <time>2016-05-25T07:43:34Z</time>
      </trkpt>
      <trkpt lat="43.25029" lon="5.67066">
        <ele>310.5</ele>
        <time>2016-05-25T07:44:04Z</time>
      </trkpt>
      <trkpt lat="43.25028" lon="5.67065">
        <ele>311.1</ele>
        <time>2016-05-25T07:44:05Z</time>
      </trkpt>
      <trkpt lat="43.25011" lon="5.67023">
        <ele>319.7</ele>
        <time>2016-05-25T07:44:41Z</time>
      </trkpt>
      <trkpt lat="43.25002" lon="5.67002">
        <ele>318.1</ele>
        <time>2016-05-25T07:44:57Z</time>
      </trkpt>
      <trkpt lat="43.24994" lon="5.6698">
        <ele>319.2</ele>
        <time>2016-05-25T07:45:13Z</time>
      </trkpt>
      <trkpt lat="43.24994" lon="5.66979">
        <ele>319.2</ele>
        <time>2016-05-25T07:45:14Z</time>
      </trkpt>
      <trkpt lat="43.24983" lon="5.66936">
        <ele>322.2</ele>
        <time>2016-05-25T07:45:41Z</time>
      </trkpt>
      <trkpt lat="43.24976" lon="5.66914">
        <ele>320.2</ele>
        <time>2016-05-25T07:45:56Z</time>
      </trkpt>
      <trkpt lat="43.24964" lon="5.66897">
        <ele>313</ele>
        <time>2016-05-25T07:46:14Z</time>
      </trkpt>
      <trkpt lat="43.24963" lon="5.66896">
        <ele>312.3</ele>
        <time>2016-05-25T07:46:15Z</time>
      </trkpt>
      <trkpt lat="43.24939" lon="5.66865">
        <ele>304.5</ele>
        <time>2016-05-25T07:46:50Z</time>
      </trkpt>
      <trkpt lat="43.24924" lon="5.66852">
        <ele>301.2</ele>
        <time>2016-05-25T07:47:09Z</time>
      </trkpt>
      <trkpt lat="43.24912" lon="5.66836">
        <ele>303.1</ele>
        <time>2016-05-25T07:47:22Z</time>
      </trkpt>
      <trkpt lat="43.24911" lon="5.66833">
        <ele>303.7</ele>
        <time>2016-05-25T07:47:23Z</time>
      </trkpt>
      <trkpt lat="43.24878" lon="5.66821">
        <ele>302.7</ele>
        <time>2016-05-25T07:48:00Z</time>
      </trkpt>
      <trkpt lat="43.2487" lon="5.668">
        <ele>309.1</ele>
        <time>2016-05-25T07:48:13Z</time>
      </trkpt>
      <trkpt lat="43.24861" lon="5.6678">
        <ele>310.7</ele>
        <time>2016-05-25T07:48:30Z</time>
      </trkpt>
      <trkpt lat="43.24861" lon="5.66779">
        <ele>311.3</ele>
        <time>2016-05-25T07:48:31Z</time>
      </trkpt>
      <trkpt lat="43.24848" lon="5.66736">
        <ele>306</ele>
        <time>2016-05-25T07:49:03Z</time>
      </trkpt>
      <trkpt lat="43.24839" lon="5.66715">
        <ele>301.7</ele>
        <time>2016-05-25T07:49:21Z</time>
      </trkpt>
      <trkpt lat="43.24827" lon="5.66699">
        <ele>299.2</ele>
        <time>2016-05-25T07:49:37Z</time>
      </trkpt>
      <trkpt lat="43.24826" lon="5.66697">
        <ele>299.8</ele>
        <time>2016-05-25T07:49:38Z</time>
      </trkpt>
      <trkpt lat="43.24797" lon="5.66673">
        <ele>296.2</ele>
        <time>2016-05-25T07:51:44Z</time>
      </trkpt>
      <trkpt lat="43.24796" lon="5.66672">
        <ele>296.8</ele>
        <time>2016-05-25T07:51:45Z</time>
      </trkpt>
      <trkpt lat="43.24788" lon="5.66627">
        <ele>295</ele>
        <time>2016-05-25T07:52:35Z</time>
      </trkpt>
      <trkpt lat="43.24788" lon="5.66603">
        <ele>297.3</ele>
        <time>2016-05-25T07:53:00Z</time>
      </trkpt>
      <trkpt lat="43.24789" lon="5.66601">
        <ele>297.6</ele>
        <time>2016-05-25T07:53:01Z</time>
      </trkpt>
      <trkpt lat="43.24812" lon="5.66569">
        <ele>297.8</ele>
        <time>2016-05-25T07:53:38Z</time>
      </trkpt>
      <trkpt lat="43.2483" lon="5.66574">
        <ele>295.8</ele>
        <time>2016-05-25T07:54:01Z</time>
      </trkpt>
      <trkpt lat="43.24832" lon="5.66575">
        <ele>296.1</ele>
        <time>2016-05-25T07:54:02Z</time>
      </trkpt>
      <trkpt lat="43.24861" lon="5.66594">
        <ele>295.7</ele>
        <time>2016-05-25T07:54:34Z</time>
      </trkpt>
      <trkpt lat="43.24873" lon="5.6661">
        <ele>297.1</ele>
        <time>2016-05-25T07:54:50Z</time>
      </trkpt>
      <trkpt lat="43.24888" lon="5.66621">
        <ele>296.1</ele>
        <time>2016-05-25T07:55:06Z</time>
      </trkpt>
      <trkpt lat="43.2489" lon="5.66621">
        <ele>296</ele>
        <time>2016-05-25T07:55:07Z</time>
      </trkpt>
      <trkpt lat="43.24922" lon="5.66628">
        <ele>297.7</ele>
        <time>2016-05-25T07:55:38Z</time>
      </trkpt>
      <trkpt lat="43.24939" lon="5.66633">
        <ele>296.8</ele>
        <time>2016-05-25T07:55:53Z</time>
      </trkpt>
      <trkpt lat="43.24956" lon="5.66637">
        <ele>298.8</ele>
        <time>2016-05-25T07:56:11Z</time>
      </trkpt>
      <trkpt lat="43.24957" lon="5.66637">
        <ele>298.7</ele>
        <time>2016-05-25T07:56:12Z</time>
      </trkpt>
      <trkpt lat="43.24991" lon="5.66645">
        <ele>299.5</ele>
        <time>2016-05-25T07:56:47Z</time>
      </trkpt>
      <trkpt lat="43.25008" lon="5.66644">
        <ele>299.7</ele>
        <time>2016-05-25T07:57:17Z</time>
      </trkpt>
      <trkpt lat="43.25009" lon="5.66643">
        <ele>300.2</ele>
        <time>2016-05-25T07:57:18Z</time>
      </trkpt>
      <trkpt lat="43.25042" lon="5.66635">
        <ele>300.7</ele>
        <time>2016-05-25T07:57:58Z</time>
      </trkpt>
      <trkpt lat="43.25058" lon="5.66644">
        <ele>300.6</ele>
        <time>2016-05-25T07:58:17Z</time>
      </trkpt>
      <trkpt lat="43.25074" lon="5.66652">
        <ele>297.1</ele>
        <time>2016-05-25T07:58:33Z</time>
      </trkpt>
      <trkpt lat="43.25077" lon="5.66652">
        <ele>297.2</ele>
        <time>2016-05-25T07:58:34Z</time>
      </trkpt>
      <trkpt lat="43.25099" lon="5.66682">
        <ele>293.6</ele>
        <time>2016-05-25T07:59:09Z</time>
      </trkpt>
      <trkpt lat="43.25095" lon="5.66706">
        <ele>300.2</ele>
        <time>2016-05-25T08:00:00Z</time>
      </trkpt>
      <trkpt lat="43.25095" lon="5.66707">
        <ele>300.2</ele>
        <time>2016-05-25T08:00:01Z</time>
      </trkpt>
      <trkpt lat="43.25078" lon="5.66715">
        <ele>285.8</ele>
        <time>2016-05-25T08:11:29Z</time>
      </trkpt>
      <trkpt lat="43.25044" lon="5.6672">
        <ele>283.2</ele>
        <time>2016-05-25T08:12:19Z</time>
      </trkpt>
      <trkpt lat="43.25041" lon="5.66744">
        <ele>279.8</ele>
        <time>2016-05-25T08:12:43Z</time>
      </trkpt>
      <trkpt lat="43.2504" lon="5.66745">
        <ele>279.7</ele>
        <time>2016-05-25T08:12:44Z</time>
      </trkpt>
      <trkpt lat="43.2501" lon="5.66763">
        <ele>281.5</ele>
        <time>2016-05-25T08:13:23Z</time>
      </trkpt>
      <trkpt lat="43.24998" lon="5.6678">
        <ele>282.8</ele>
        <time>2016-05-25T08:13:37Z</time>
      </trkpt>
      <trkpt lat="43.24987" lon="5.66797">
        <ele>287.1</ele>
        <time>2016-05-25T08:13:53Z</time>
      </trkpt>
      <trkpt lat="43.24986" lon="5.66798">
        <ele>286.7</ele>
        <time>2016-05-25T08:13:54Z</time>
      </trkpt>
      <trkpt lat="43.25003" lon="5.66837">
        <ele>291.2</ele>
        <time>2016-05-25T08:14:37Z</time>
      </trkpt>
      <trkpt lat="43.25015" lon="5.66855">
        <ele>290.7</ele>
        <time>2016-05-25T08:14:55Z</time>
      </trkpt>
      <trkpt lat="43.25015" lon="5.66856">
        <ele>291.1</ele>
        <time>2016-05-25T08:14:56Z</time>
      </trkpt>
      <trkpt lat="43.25036" lon="5.66893">
        <ele>291.8</ele>
        <time>2016-05-25T08:15:31Z</time>
      </trkpt>
      <trkpt lat="43.25044" lon="5.66914">
        <ele>290.5</ele>
        <time>2016-05-25T08:15:51Z</time>
      </trkpt>
      <trkpt lat="43.2505" lon="5.66936">
        <ele>294.8</ele>
        <time>2016-05-25T08:16:10Z</time>
      </trkpt>
      <trkpt lat="43.2505" lon="5.66938">
        <ele>294.7</ele>
        <time>2016-05-25T08:16:11Z</time>
      </trkpt>
      <trkpt lat="43.2506" lon="5.66957">
        <ele>296.7</ele>
        <time>2016-05-25T08:17:12Z</time>
      </trkpt>
      <trkpt lat="43.25053" lon="5.66933">
        <ele>296.1</ele>
        <time>2016-05-25T08:19:02Z</time>
      </trkpt>
      <trkpt lat="43.2506" lon="5.66957">
        <ele>294.3</ele>
        <time>2016-05-25T08:20:44Z</time>
      </trkpt>
      <trkpt lat="43.25077" lon="5.66967">
        <ele>289.6</ele>
        <time>2016-05-25T08:22:02Z</time>
      </trkpt>
      <trkpt lat="43.25106" lon="5.66993">
        <ele>285.6</ele>
        <time>2016-05-25T08:22:36Z</time>
      </trkpt>
      <trkpt lat="43.25121" lon="5.67004">
        <ele>287.3</ele>
        <time>2016-05-25T08:22:55Z</time>
      </trkpt>
      <trkpt lat="43.25137" lon="5.67015">
        <ele>278.7</ele>
        <time>2016-05-25T08:23:16Z</time>
      </trkpt>
      <trkpt lat="43.25138" lon="5.67016">
        <ele>278.6</ele>
        <time>2016-05-25T08:23:17Z</time>
      </trkpt>
      <trkpt lat="43.25163" lon="5.67048">
        <ele>276.7</ele>
        <time>2016-05-25T08:23:49Z</time>
      </trkpt>
      <trkpt lat="43.25175" lon="5.67066">
        <ele>279.2</ele>
        <time>2016-05-25T08:24:04Z</time>
      </trkpt>
      <trkpt lat="43.25183" lon="5.67087">
        <ele>278.5</ele>
        <time>2016-05-25T08:24:20Z</time>
      </trkpt>
      <trkpt lat="43.25184" lon="5.67088">
        <ele>278.5</ele>
        <time>2016-05-25T08:24:21Z</time>
      </trkpt>
      <trkpt lat="43.25188" lon="5.67133">
        <ele>280.2</ele>
        <time>2016-05-25T08:24:58Z</time>
      </trkpt>
      <trkpt lat="43.25178" lon="5.67152">
        <ele>279</ele>
        <time>2016-05-25T08:25:17Z</time>
      </trkpt>
      <trkpt lat="43.25164" lon="5.67167">
        <ele>281.2</ele>
        <time>2016-05-25T08:25:36Z</time>
      </trkpt>
      <trkpt lat="43.25163" lon="5.67168">
        <ele>281.3</ele>
        <time>2016-05-25T08:25:37Z</time>
      </trkpt>
      <trkpt lat="43.25131" lon="5.67181">
        <ele>287.8</ele>
        <time>2016-05-25T08:26:27Z</time>
      </trkpt>
      <trkpt lat="43.25116" lon="5.67194">
        <ele>292</ele>
        <time>2016-05-25T08:26:42Z</time>
      </trkpt>
      <trkpt lat="43.25115" lon="5.67195">
        <ele>292</ele>
        <time>2016-05-25T08:26:43Z</time>
      </trkpt>
      <trkpt lat="43.25087" lon="5.67221">
        <ele>293.6</ele>
        <time>2016-05-25T08:27:21Z</time>
      </trkpt>
      <trkpt lat="43.2507" lon="5.67224">
        <ele>299.2</ele>
        <time>2016-05-25T08:27:35Z</time>
      </trkpt>
      <trkpt lat="43.25054" lon="5.67235">
        <ele>292</ele>
        <time>2016-05-25T08:27:54Z</time>
      </trkpt>
      <trkpt lat="43.25054" lon="5.67236">
        <ele>292.3</ele>
        <time>2016-05-25T08:27:55Z</time>
      </trkpt>
      <trkpt lat="43.25024" lon="5.67257">
        <ele>294.2</ele>
        <time>2016-05-25T08:28:25Z</time>
      </trkpt>
      <trkpt lat="43.25011" lon="5.67273">
        <ele>298</ele>
        <time>2016-05-25T08:28:42Z</time>
      </trkpt>
      <trkpt lat="43.25" lon="5.67291">
        <ele>298.5</ele>
        <time>2016-05-25T08:29:02Z</time>
      </trkpt>
      <trkpt lat="43.24998" lon="5.67292">
        <ele>298.6</ele>
        <time>2016-05-25T08:29:03Z</time>
      </trkpt>
      <trkpt lat="43.24974" lon="5.67323">
        <ele>317.2</ele>
        <time>2016-05-25T08:29:47Z</time>
      </trkpt>
      <trkpt lat="43.24958" lon="5.67336">
        <ele>306.6</ele>
        <time>2016-05-25T08:30:03Z</time>
      </trkpt>
      <trkpt lat="43.24958" lon="5.67336">
        <ele>306</ele>
        <time>2016-05-25T08:30:04Z</time>
      </trkpt>
      <trkpt lat="43.2493" lon="5.67362">
        <ele>313.2</ele>
        <time>2016-05-25T08:30:41Z</time>
      </trkpt>
      <trkpt lat="43.24915" lon="5.67368">
        <ele>320.8</ele>
        <time>2016-05-25T08:31:04Z</time>
      </trkpt>
      <trkpt lat="43.24913" lon="5.67369">
        <ele>321.7</ele>
        <time>2016-05-25T08:31:05Z</time>
      </trkpt>
      <trkpt lat="43.249" lon="5.67403">
        <ele>317.1</ele>
        <time>2016-05-25T08:32:53Z</time>
      </trkpt>
      <trkpt lat="43.249" lon="5.67403">
        <ele>317.6</ele>
        <time>2016-05-25T08:32:54Z</time>
      </trkpt>
      <trkpt lat="43.2493" lon="5.67427">
        <ele>325.2</ele>
        <time>2016-05-25T08:33:56Z</time>
      </trkpt>
      <trkpt lat="43.24931" lon="5.67427">
        <ele>326.1</ele>
        <time>2016-05-25T08:33:57Z</time>
      </trkpt>
      <trkpt lat="43.24942" lon="5.67472">
        <ele>332.2</ele>
        <time>2016-05-25T08:35:09Z</time>
      </trkpt>
      <trkpt lat="43.24942" lon="5.67472">
        <ele>332.1</ele>
        <time>2016-05-25T08:35:10Z</time>
      </trkpt>
      <trkpt lat="43.2495" lon="5.67518">
        <ele>341.7</ele>
        <time>2016-05-25T08:36:23Z</time>
      </trkpt>
      <trkpt lat="43.24951" lon="5.67518">
        <ele>341.7</ele>
        <time>2016-05-25T08:36:24Z</time>
      </trkpt>
      <trkpt lat="43.24973" lon="5.67555">
        <ele>356.6</ele>
        <time>2016-05-25T08:37:38Z</time>
      </trkpt>
      <trkpt lat="43.24973" lon="5.67556">
        <ele>356.6</ele>
        <time>2016-05-25T08:37:39Z</time>
      </trkpt>
      <trkpt lat="43.24992" lon="5.67596">
        <ele>364.7</ele>
        <time>2016-05-25T08:38:50Z</time>
      </trkpt>
      <trkpt lat="43.24993" lon="5.67597">
        <ele>365.2</ele>
        <time>2016-05-25T08:38:51Z</time>
      </trkpt>
      <trkpt lat="43.24999" lon="5.67644">
        <ele>374.7</ele>
        <time>2016-05-25T08:40:11Z</time>
      </trkpt>
      <trkpt lat="43.24999" lon="5.67645">
        <ele>375</ele>
        <time>2016-05-25T08:40:12Z</time>
      </trkpt>
      <trkpt lat="43.25" lon="5.67692">
        <ele>383.2</ele>
        <time>2016-05-25T08:41:32Z</time>
      </trkpt>
      <trkpt lat="43.25" lon="5.67693">
        <ele>383.5</ele>
        <time>2016-05-25T08:41:33Z</time>
      </trkpt>
      <trkpt lat="43.24995" lon="5.6774">
        <ele>388.7</ele>
        <time>2016-05-25T08:42:37Z</time>
      </trkpt>
      <trkpt lat="43.24995" lon="5.6774">
        <ele>388.8</ele>
        <time>2016-05-25T08:42:38Z</time>
      </trkpt>
      <trkpt lat="43.2499" lon="5.67788">
        <ele>397.7</ele>
        <time>2016-05-25T08:43:41Z</time>
      </trkpt>
      <trkpt lat="43.2499" lon="5.67789">
        <ele>397.6</ele>
        <time>2016-05-25T08:43:42Z</time>
      </trkpt>
      <trkpt lat="43.24981" lon="5.67836">
        <ele>401.6</ele>
        <time>2016-05-25T08:44:40Z</time>
      </trkpt>
      <trkpt lat="43.24977" lon="5.67858">
        <ele>400.6</ele>
        <time>2016-05-25T08:45:06Z</time>
      </trkpt>
      <trkpt lat="43.24975" lon="5.67859">
        <ele>401.7</ele>
        <time>2016-05-25T08:45:07Z</time>
      </trkpt>
      <trkpt lat="43.24959" lon="5.679">
        <ele>410.8</ele>
        <time>2016-05-25T08:46:24Z</time>
      </trkpt>
      <trkpt lat="43.24958" lon="5.679">
        <ele>411.1</ele>
        <time>2016-05-25T08:46:25Z</time>
      </trkpt>
      <trkpt lat="43.24955" lon="5.67925">
        <ele>410.6</ele>
        <time>2016-05-25T08:48:27Z</time>
      </trkpt>
    </trkseg>
  </trk>
</gpx>